Time;durP1;ratioP1;P1;durP2;ratioP2;P2;SDS_P1;SDS_P2;PMS_P1;PMS_P2;Temp;Humidity;BMP_temperature;BMP_pressure;BME280_temperature;BME280_humidity;BME280_pressure;Samples;Min_cycle;Max_cycle;Signal;HPM_P1;HPM_P2
2022/12/07 00:01:33;;;;;;;19.50;12.20;;;5.40;99.90;;;;;;5074325;28;20177;-76
2022/12/07 00:04:04;;;;;;;15.53;10.93;;;5.40;99.90;;;;;;5055954;28;20266;-78
2022/12/07 00:06:34;;;;;;;18.13;12.43;;;5.40;99.90;;;;;;5074436;28;20218;-78
2022/12/07 00:09:00;;;;;;;17.83;11.77;;;5.40;99.90;;;;;;5073887;28;20171;-78
2022/12/07 00:11:25;;;;;;;17.67;13.00;;;5.40;99.90;;;;;;5074077;28;20167;-77
2022/12/07 00:13:53;;;;;;;15.93;11.83;;;5.40;99.90;;;;;;5074018;28;20620;-78
2022/12/07 00:16:21;;;;;;;19.43;12.53;;;5.40;99.90;;;;;;5074051;28;20171;-77
2022/12/07 00:18:46;;;;;;;20.53;11.93;;;5.40;99.90;;;;;;5073874;28;20162;-77
2022/12/07 00:21:14;;;;;;;19.67;14.37;;;5.40;99.90;;;;;;5074251;28;20225;-77
2022/12/07 00:23:40;;;;;;;22.07;15.53;;;5.40;99.90;;;;;;5073775;28;20228;-77
2022/12/07 00:26:09;;;;;;;21.97;15.57;;;5.50;99.90;;;;;;5074294;28;20171;-76
2022/12/07 00:28:35;;;;;;;28.10;16.73;;;5.50;99.90;;;;;;5073528;28;20202;-78
2022/12/07 00:31:06;;;;;;;26.00;18.00;;;5.50;99.90;;;;;;5055903;28;20174;-77
2022/12/07 00:33:33;;;;;;;30.37;17.00;;;5.50;99.90;;;;;;5073548;28;20274;-77
2022/12/07 00:36:00;;;;;;;21.73;15.67;;;5.50;99.90;;;;;;5055399;28;20178;-78
2022/12/07 00:38:29;;;;;;;25.27;15.03;;;5.60;99.90;;;;;;5073552;28;20243;-78
2022/12/07 00:40:59;;;;;;;26.37;16.80;;;5.50;99.90;;;;;;5074062;28;20240;-78
2022/12/07 00:43:26;;;;;;;22.43;14.23;;;5.50;99.90;;;;;;5055871;28;20175;-78
2022/12/07 00:45:51;;;;;;;19.63;14.30;;;5.50;99.90;;;;;;5055514;28;20586;-78
2022/12/07 00:48:17;;;;;;;20.30;13.77;;;5.50;99.90;;;;;;5055396;28;20240;-77
2022/12/07 00:50:43;;;;;;;23.73;13.37;;;5.50;99.90;;;;;;5073597;28;20167;-78
2022/12/07 00:53:08;;;;;;;19.83;14.57;;;5.50;99.90;;;;;;5073477;28;20223;-77
2022/12/07 00:55:34;;;;;;;28.50;16.43;;;5.50;99.90;;;;;;5073363;28;20167;-77
2022/12/07 00:58:00;;;;;;;30.33;16.10;;;5.50;99.90;;;;;;5055351;28;20235;-77
2022/12/07 01:00:25;;;;;;;29.67;17.17;;;5.50;99.90;;;;;;5073174;28;20195;-77
2022/12/07 01:02:52;;;;;;;29.57;15.97;;;5.50;99.90;;;;;;5055194;28;20170;-77
2022/12/07 01:05:17;;;;;;;25.63;15.00;;;5.50;99.90;;;;;;5072898;28;20175;-77
2022/12/07 01:07:43;;;;;;;22.47;14.00;;;5.50;99.90;;;;;;5073366;28;20239;-78
2022/12/07 01:10:09;;;;;;;20.73;13.20;;;5.50;99.90;;;;;;5073520;28;20182;-78
2022/12/07 01:12:34;;;;;;;22.07;14.07;;;5.60;99.90;;;;;;5072917;28;20178;-77
2022/12/07 01:15:00;;;;;;;19.63;13.83;;;5.60;99.90;;;;;;5072370;28;20199;-78
2022/12/07 01:17:25;;;;;;;29.40;13.57;;;5.60;99.90;;;;;;5055142;28;20214;-78
2022/12/07 01:19:51;;;;;;;24.97;14.70;;;5.60;99.90;;;;;;5073632;28;20458;-77
2022/12/07 01:22:16;;;;;;;22.47;14.87;;;5.60;99.90;;;;;;5054898;28;20171;-77
2022/12/07 01:24:42;;;;;;;22.97;16.03;;;5.60;99.90;;;;;;5072755;28;20202;-77
2022/12/07 01:27:07;;;;;;;28.97;16.10;;;5.60;99.90;;;;;;5072999;28;20198;-77
2022/12/07 01:29:33;;;;;;;24.17;15.90;;;5.60;99.90;;;;;;5072847;28;20220;-77
2022/12/07 01:31:58;;;;;;;27.43;14.57;;;5.50;99.90;;;;;;5055053;28;20541;-77
2022/12/07 01:34:24;;;;;;;21.53;14.20;;;5.50;99.90;;;;;;5054650;28;20195;-78
2022/12/07 01:36:49;;;;;;;19.17;13.90;;;5.50;99.90;;;;;;5054687;28;20210;-77
2022/12/07 01:39:15;;;;;;;18.63;12.17;;;5.50;99.90;;;;;;5073495;28;20155;-78
2022/12/07 01:41:43;;;;;;;16.57;13.30;;;5.50;99.90;;;;;;5054929;28;20175;-77
2022/12/07 01:44:17;;;;;;;17.00;12.53;;;5.40;99.90;;;;;;5072917;28;20239;-78
2022/12/07 01:46:45;;;;;;;18.83;11.57;;;5.40;99.90;;;;;;5073027;28;20239;-78
2022/12/07 01:49:20;;;;;;;18.33;13.43;;;5.40;99.90;;;;;;5073764;28;20220;-77
2022/12/07 01:51:48;;;;;;;20.23;14.90;;;5.40;99.90;;;;;;5054969;28;20703;-78
2022/12/07 01:54:15;;;;;;;18.33;13.23;;;5.40;99.90;;;;;;5073022;28;20197;-77
2022/12/07 01:56:47;;;;;;;17.70;14.03;;;5.40;99.90;;;;;;5054821;28;20195;-77
2022/12/07 01:59:14;;;;;;;18.43;12.77;;;5.30;99.90;;;;;;5072707;28;20242;-76
2022/12/07 02:01:40;;;;;;;19.73;12.53;;;5.40;99.90;;;;;;5072950;28;20167;-78
2022/12/07 02:04:06;;;;;;;22.87;14.30;;;5.30;99.90;;;;;;5072708;28;20228;-78
2022/12/07 02:06:31;;;;;;;20.27;14.33;;;5.30;99.90;;;;;;5072965;28;20223;-77
2022/12/07 02:08:57;;;;;;;21.37;14.13;;;5.30;99.90;;;;;;5072845;28;20269;-78
2022/12/07 02:11:22;;;;;;;21.10;13.50;;;5.30;99.90;;;;;;5072797;28;20178;-77
2022/12/07 02:13:49;;;;;;;16.67;12.97;;;5.30;99.90;;;;;;5071418;28;20207;-77
2022/12/07 02:16:34;;;;;;;20.50;14.07;;;5.30;99.90;;;;;;5073041;28;20529;-77
2022/12/07 02:19:20;;;;;;;18.43;13.40;;;5.20;99.90;;;;;;5072881;28;20651;-78
2022/12/07 02:22:00;;;;;;;16.80;12.10;;;5.20;99.90;;;;;;5079125;28;20187;-77
2022/12/07 02:24:28;;;;;;;18.87;13.10;;;5.20;99.90;;;;;;5078215;28;20610;-77
2022/12/07 02:27:12;;;;;;;18.07;13.17;;;5.10;99.90;;;;;;5059226;28;20336;-78
2022/12/07 02:30:00;;;;;;;16.73;12.13;;;5.10;99.90;;;;;;5076157;28;20202;-77
2022/12/07 02:32:48;;;;;;;18.73;12.37;;;5.10;99.90;;;;;;5058011;28;20193;-78
2022/12/07 02:35:25;;;;;;;18.20;12.03;;;5.10;99.90;;;;;;5057839;28;20290;-77
2022/12/07 02:38:15;;;;;;;17.73;12.00;;;5.10;99.90;;;;;;5057800;28;20271;-77
2022/12/07 02:40:54;;;;;;;17.30;11.33;;;5.10;99.90;;;;;;5058430;28;20171;-78
2022/12/07 02:43:30;;;;;;;15.17;11.57;;;5.10;99.90;;;;;;5076563;28;20539;-77
2022/12/07 02:46:01;;;;;;;17.70;11.57;;;5.10;99.90;;;;;;5076113;28;20154;-77
2022/12/07 02:48:28;;;;;;;16.30;11.27;;;5.10;99.90;;;;;;5075862;28;20187;-77
2022/12/07 02:50:54;;;;;;;18.70;11.90;;;5.10;99.90;;;;;;5075388;28;20537;-77
2022/12/07 02:53:40;;;;;;;15.60;12.03;;;5.10;99.90;;;;;;5075774;28;20167;-77
2022/12/07 02:56:23;;;;;;;25.67;12.60;;;5.10;99.90;;;;;;5075568;28;20679;-77
2022/12/07 02:58:57;;;;;;;21.37;11.73;;;5.00;99.90;;;;;;5075935;28;20273;-77
2022/12/07 03:01:31;;;;;;;17.47;12.23;;;5.00;99.90;;;;;;5057686;28;20209;-77
2022/12/07 03:04:22;;;;;;;15.47;11.53;;;5.00;99.90;;;;;;5075568;28;20299;-77
2022/12/07 03:07:00;;;;;;;16.13;11.37;;;5.10;99.90;;;;;;5074604;28;20211;-77
2022/12/07 03:09:48;;;;;;;18.13;11.67;;;5.00;99.90;;;;;;5075610;28;20212;-78
2022/12/07 03:12:20;;;;;;;16.23;11.10;;;5.00;99.90;;;;;;5075481;28;20175;-77
2022/12/07 03:15:17;;;;;;;18.83;11.80;;;5.00;99.90;;;;;;5075141;28;20198;-77
2022/12/07 03:17:46;;;;;;;14.20;11.10;;;5.00;99.90;;;;;;5053714;28;20234;-77
2022/12/07 03:20:17;;;;;;;15.10;10.63;;;4.90;99.90;;;;;;5057063;28;20198;-77
2022/12/07 03:22:45;;;;;;;16.77;10.53;;;5.00;99.90;;;;;;5057018;28;20603;-77
2022/12/07 03:25:13;;;;;;;15.17;11.60;;;4.90;99.90;;;;;;5057592;28;20239;-77
2022/12/07 03:28:02;;;;;;;15.33;10.80;;;4.90;99.90;;;;;;5074678;28;20191;-77
2022/12/07 03:30:51;;;;;;;17.20;10.60;;;4.90;99.90;;;;;;5075063;28;20565;-77
2022/12/07 03:33:23;;;;;;;18.73;11.53;;;4.90;99.90;;;;;;5056746;28;20167;-77
2022/12/07 03:36:08;;;;;;;14.37;10.63;;;4.80;99.90;;;;;;5057218;28;20637;-77
2022/12/07 03:38:42;;;;;;;16.00;10.50;;;4.80;99.90;;;;;;5075118;28;20219;-77
2022/12/07 03:41:18;;;;;;;17.83;11.30;;;4.80;99.90;;;;;;5076218;28;20162;-77
2022/12/07 03:43:44;;;;;;;13.47;10.33;;;4.70;99.90;;;;;;5075114;28;20162;-77
2022/12/07 03:46:51;;;;;;;16.40;11.10;;;4.70;99.90;;;;;;5074876;28;20229;-77
2022/12/07 03:49:38;;;;;;;13.73;9.83;;;4.70;99.90;;;;;;5074563;28;20174;-77
2022/12/07 03:52:18;;;;;;;18.30;11.50;;;4.60;99.90;;;;;;5074640;28;20159;-77
2022/12/07 03:55:13;;;;;;;16.10;11.13;;;4.50;99.90;;;;;;5074456;28;20187;-77
2022/12/07 03:57:42;;;;;;;19.20;11.73;;;4.60;99.90;;;;;;5074453;28;20183;-77
2022/12/07 04:00:09;;;;;;;13.87;10.17;;;4.50;99.90;;;;;;5056239;28;20175;-78
2022/12/07 04:02:35;;;;;;;19.17;11.20;;;4.50;99.90;;;;;;5074393;28;20214;-77
2022/12/07 04:05:02;;;;;;;16.87;10.80;;;4.50;99.90;;;;;;5074366;28;20170;-77
2022/12/07 04:07:28;;;;;;;14.90;11.53;;;4.50;99.90;;;;;;5056000;28;20195;-77
2022/12/07 04:09:54;;;;;;;17.20;10.97;;;4.50;99.90;;;;;;5074130;28;20703;-77
2022/12/07 04:12:20;;;;;;;18.80;10.87;;;4.50;99.90;;;;;;5072457;28;20671;-76
2022/12/07 04:14:46;;;;;;;17.00;11.00;;;4.50;99.90;;;;;;5073977;28;20217;-77
2022/12/07 04:17:12;;;;;;;16.77;11.17;;;4.50;99.90;;;;;;5074310;28;20661;-77
2022/12/07 04:19:37;;;;;;;20.50;12.03;;;4.50;99.90;;;;;;5072596;28;20638;-77
2022/12/07 04:22:04;;;;;;;22.40;11.23;;;4.50;99.90;;;;;;5073839;28;20167;-77
2022/12/07 04:24:30;;;;;;;19.63;11.87;;;4.50;99.90;;;;;;5073836;28;20197;-77
2022/12/07 04:26:56;;;;;;;17.40;11.43;;;4.50;99.90;;;;;;5073920;28;20191;-78
2022/12/07 04:29:22;;;;;;;19.57;10.80;;;4.60;99.90;;;;;;5073962;28;20222;-77
2022/12/07 04:31:48;;;;;;;13.80;9.97;;;4.50;99.90;;;;;;5073952;28;20171;-77
2022/12/07 04:34:14;;;;;;;15.13;10.40;;;4.60;99.90;;;;;;5073733;28;20202;-77
2022/12/07 04:36:40;;;;;;;16.33;10.73;;;4.60;99.90;;;;;;5073403;28;20194;-77
2022/12/07 04:39:07;;;;;;;16.67;11.50;;;4.60;99.90;;;;;;5073605;28;20336;-78
2022/12/07 04:41:33;;;;;;;14.17;10.43;;;4.60;99.90;;;;;;5055860;28;20167;-77
2022/12/07 04:44:03;;;;;;;16.70;10.13;;;4.60;99.90;;;;;;5055830;28;20197;-76
2022/12/07 04:46:31;;;;;;;13.33;9.30;;;4.50;99.90;;;;;;5055511;28;20171;-77
2022/12/07 04:48:57;;;;;;;14.90;10.70;;;4.50;99.90;;;;;;5079249;28;20175;-76
2022/12/07 04:51:25;;;;;;;14.87;10.67;;;4.50;99.90;;;;;;5079618;28;20266;-77
2022/12/07 04:53:51;;;;;;;21.93;9.93;;;4.50;99.90;;;;;;5078104;28;20206;-77
2022/12/07 04:56:17;;;;;;;13.57;9.87;;;4.50;99.90;;;;;;5073191;28;20171;-77
2022/12/07 04:58:45;;;;;;;18.07;11.53;;;4.50;99.90;;;;;;5073312;28;20653;-76
2022/12/07 05:01:11;;;;;;;17.57;10.37;;;4.50;99.90;;;;;;5073185;28;20179;-77
2022/12/07 05:03:36;;;;;;;17.23;9.93;;;4.50;99.90;;;;;;5073462;28;20171;-77
2022/12/07 05:06:02;;;;;;;13.97;9.93;;;4.50;99.90;;;;;;5073360;28;20174;-77
2022/12/07 05:08:28;;;;;;;16.63;10.37;;;4.40;99.90;;;;;;5073284;28;20194;-77
2022/12/07 05:10:53;;;;;;;19.33;11.00;;;4.40;99.90;;;;;;5071824;28;20579;-77
2022/12/07 05:13:19;;;;;;;16.43;10.30;;;4.40;99.90;;;;;;5073147;28;20171;-77
2022/12/07 05:15:46;;;;;;;15.67;10.23;;;4.40;99.90;;;;;;5071822;28;20167;-78
2022/12/07 05:18:14;;;;;;;15.07;10.80;;;4.40;99.90;;;;;;5055061;28;20267;-77
2022/12/07 05:20:40;;;;;;;16.20;10.90;;;4.40;99.90;;;;;;5071699;28;20170;-78
2022/12/07 05:23:06;;;;;;;15.27;10.77;;;4.40;99.90;;;;;;5055288;28;20210;-78
2022/12/07 05:25:31;;;;;;;16.70;10.20;;;4.40;99.90;;;;;;5054830;28;20267;-76
2022/12/07 05:27:57;;;;;;;16.23;11.23;;;4.40;99.90;;;;;;5073791;28;20206;-77
2022/12/07 05:30:24;;;;;;;20.73;10.20;;;4.40;99.90;;;;;;5073067;28;20551;-77
2022/12/07 05:32:49;;;;;;;16.53;10.97;;;4.30;99.90;;;;;;5054837;28;20186;-77
2022/12/07 05:35:15;;;;;;;15.87;10.07;;;4.30;99.90;;;;;;5072616;28;20194;-77
2022/12/07 05:37:41;;;;;;;16.77;10.43;;;4.30;99.90;;;;;;5072809;28;20720;-78
2022/12/07 05:40:07;;;;;;;14.50;10.33;;;4.30;99.90;;;;;;5071434;28;20202;-77
2022/12/07 05:42:33;;;;;;;19.13;9.97;;;4.30;99.90;;;;;;5072620;28;20171;-77
2022/12/07 05:44:58;;;;;;;15.80;9.43;;;4.30;99.90;;;;;;5072860;28;20173;-77
2022/12/07 05:47:24;;;;;;;15.70;9.90;;;4.30;99.90;;;;;;5072608;28;20685;-77
2022/12/07 05:49:49;;;;;;;14.33;9.13;;;4.30;99.90;;;;;;5072482;28;20178;-77
2022/12/07 05:52:15;;;;;;;16.63;9.73;;;4.30;99.90;;;;;;5072572;28;20248;-78
2022/12/07 05:54:41;;;;;;;22.50;10.10;;;4.30;99.90;;;;;;5054707;28;20232;-77
2022/12/07 05:57:06;;;;;;;15.47;9.97;;;4.30;99.90;;;;;;5072519;28;20766;-78
2022/12/07 05:59:32;;;;;;;13.97;9.07;;;4.30;99.90;;;;;;5073334;28;20244;-77
2022/12/07 06:02:03;;;;;;;16.63;9.37;;;4.30;99.90;;;;;;5057290;28;20177;-77
2022/12/07 06:04:32;;;;;;;15.63;8.87;;;4.40;99.90;;;;;;5077006;28;20224;-76
2022/12/07 06:06:58;;;;;;;15.33;10.17;;;4.30;99.90;;;;;;5058673;28;20685;-77
2022/12/07 06:09:25;;;;;;;15.20;8.93;;;4.40;99.90;;;;;;5075606;28;20273;-77
2022/12/07 06:12:38;;;;;;;11.43;8.77;;;4.40;99.90;;;;;;5058882;28;20213;-76
2022/12/07 06:14:36;;;;;;;13.47;8.90;;;4.40;99.90;;;;;;5068813;28;20211;-77
2022/12/07 06:17:02;;;;;;;14.03;8.67;;;4.40;99.90;;;;;;5076184;28;20198;-77
2022/12/07 06:19:27;;;;;;;11.83;8.40;;;4.30;99.90;;;;;;5058182;28;20175;-77
2022/12/07 06:21:53;;;;;;;17.07;8.80;;;4.40;99.90;;;;;;5058445;28;20171;-77
2022/12/07 06:24:19;;;;;;;13.43;8.90;;;4.30;99.90;;;;;;5076891;28;20198;-78
2022/12/07 06:26:45;;;;;;;11.03;8.17;;;4.30;99.90;;;;;;5078128;28;20744;-79
2022/12/07 06:29:12;;;;;;;11.63;7.67;;;4.30;99.90;;;;;;5077844;28;20175;-78
2022/12/07 06:31:38;;;;;;;13.17;8.27;;;4.30;99.90;;;;;;5077710;28;20171;-79
2022/12/07 06:34:06;;;;;;;12.63;8.33;;;4.30;99.90;;;;;;5059454;28;20256;-78
2022/12/07 06:36:32;;;;;;;14.93;8.00;;;4.40;99.90;;;;;;5059314;28;20297;-79
2022/12/07 06:38:58;;;;;;;13.57;8.37;;;4.40;99.90;;;;;;5060253;28;20678;-79
2022/12/07 06:41:24;;;;;;;14.80;8.53;;;4.30;99.90;;;;;;5059357;28;20174;-78
2022/12/07 06:43:50;;;;;;;12.50;8.17;;;4.30;99.90;;;;;;5077491;28;20543;-78
2022/12/07 06:46:16;;;;;;;12.80;8.47;;;4.40;99.90;;;;;;5077127;28;20175;-78
2022/12/07 06:48:42;;;;;;;15.53;8.73;;;4.30;99.90;;;;;;5076893;28;20186;-78
2022/12/07 06:51:08;;;;;;;11.50;8.20;;;4.30;99.90;;;;;;5058427;28;20174;-78
2022/12/07 06:53:34;;;;;;;11.83;8.63;;;4.30;99.90;;;;;;5059231;28;20754;-78
2022/12/07 06:56:00;;;;;;;11.87;8.93;;;4.30;99.90;;;;;;5076832;28;20175;-78
2022/12/07 06:58:25;;;;;;;16.73;9.33;;;4.20;99.90;;;;;;5060198;28;20278;-79
2022/12/07 07:00:51;;;;;;;14.03;8.37;;;4.20;99.90;;;;;;5094397;28;20234;-78
2022/12/07 07:03:17;;;;;;;14.43;8.87;;;4.20;99.90;;;;;;5094785;28;20257;-78
2022/12/07 07:05:43;;;;;;;11.27;8.03;;;4.10;99.90;;;;;;5085597;28;20198;-77
2022/12/07 07:08:10;;;;;;;16.50;8.70;;;4.10;99.90;;;;;;5060260;28;20229;-78
2022/12/07 07:10:36;;;;;;;11.80;8.63;;;4.10;99.90;;;;;;5058837;28;20266;-78
2022/12/07 07:13:03;;;;;;;12.83;8.77;;;4.10;99.90;;;;;;5075619;28;20175;-78
2022/12/07 07:15:28;;;;;;;10.30;8.23;;;4.10;99.90;;;;;;5076969;28;20210;-78
2022/12/07 07:17:54;;;;;;;15.17;8.73;;;4.10;99.90;;;;;;5076635;28;20561;-78
2022/12/07 07:20:19;;;;;;;14.93;8.40;;;4.10;99.90;;;;;;5058847;28;20186;-78
2022/12/07 07:22:45;;;;;;;11.40;7.70;;;4.00;99.90;;;;;;5077523;28;20549;-79
2022/12/07 07:25:10;;;;;;;12.43;8.03;;;4.10;99.90;;;;;;5059050;28;20249;-79
2022/12/07 07:27:36;;;;;;;12.80;8.77;;;4.00;99.90;;;;;;5076722;28;20199;-79
2022/12/07 07:30:02;;;;;;;11.67;8.20;;;4.00;99.90;;;;;;5076706;28;20181;-78
2022/12/07 07:32:28;;;;;;;9.53;7.60;;;3.90;99.90;;;;;;5076638;28;20167;-78
2022/12/07 07:34:53;;;;;;;12.33;7.93;;;3.90;99.90;;;;;;5075546;28;20202;-77
2022/12/07 07:37:19;;;;;;;11.60;8.03;;;3.80;99.90;;;;;;5075183;28;20209;-77
2022/12/07 07:39:44;;;;;;;8.70;7.67;;;3.80;99.90;;;;;;5075615;28;20240;-78
2022/12/07 07:42:10;;;;;;;10.17;8.40;;;3.80;99.90;;;;;;5075332;28;20661;-78
2022/12/07 07:44:35;;;;;;;11.77;8.10;;;3.80;99.90;;;;;;5075137;28;20171;-77
2022/12/07 07:47:01;;;;;;;12.23;8.03;;;3.80;99.90;;;;;;5074867;28;20658;-77
2022/12/07 07:49:27;;;;;;;11.43;7.97;;;3.70;99.90;;;;;;5074930;28;20182;-79
2022/12/07 07:51:52;;;;;;;13.57;7.63;;;3.70;99.90;;;;;;5074667;28;20179;-77
2022/12/07 07:54:18;;;;;;;10.07;7.57;;;3.70;99.90;;;;;;5056509;28;20248;-78
2022/12/07 07:56:43;;;;;;;17.20;9.07;;;3.60;99.90;;;;;;5057041;28;20194;-77
2022/12/07 07:59:09;;;;;;;13.90;8.30;;;3.60;99.90;;;;;;5056941;28;20179;-78
2022/12/07 08:01:34;;;;;;;13.47;8.47;;;3.60;99.90;;;;;;5056562;28;20175;-78
2022/12/07 08:04:00;;;;;;;12.27;8.47;;;3.60;99.90;;;;;;5074725;28;20259;-77
2022/12/07 08:06:26;;;;;;;14.50;8.70;;;3.60;99.90;;;;;;5074937;28;20734;-77
2022/12/07 08:08:52;;;;;;;12.57;8.27;;;3.60;99.90;;;;;;5074788;28;20171;-78
2022/12/07 08:11:18;;;;;;;13.63;8.23;;;3.50;99.90;;;;;;5074856;28;20179;-78
2022/12/07 08:13:46;;;;;;;12.47;8.70;;;3.50;99.90;;;;;;5074402;28;20198;-77
2022/12/07 08:16:12;;;;;;;11.60;8.23;;;3.50;99.90;;;;;;5056058;28;20194;-77
2022/12/07 08:18:39;;;;;;;12.03;8.70;;;3.50;99.90;;;;;;5074051;28;20558;-77
2022/12/07 08:21:07;;;;;;;13.70;8.63;;;3.60;99.90;;;;;;5056250;28;20187;-77
2022/12/07 08:23:33;;;;;;;10.77;8.40;;;3.50;99.90;;;;;;5073784;28;20163;-77
2022/12/07 08:26:08;;;;;;;10.73;7.90;;;3.50;99.90;;;;;;5056197;28;20174;-77
2022/12/07 08:28:34;;;;;;;13.27;7.47;;;3.50;99.90;;;;;;5056874;28;20229;-78
2022/12/07 08:31:04;;;;;;;10.87;7.60;;;3.50;99.90;;;;;;5056549;28;20385;-78
2022/12/07 08:33:29;;;;;;;12.30;8.70;;;3.50;99.90;;;;;;5056734;28;20159;-78
2022/12/07 08:36:03;;;;;;;12.47;7.70;;;3.50;99.90;;;;;;5074464;28;20171;-78
2022/12/07 08:38:29;;;;;;;10.83;7.70;;;3.50;99.90;;;;;;5074203;28;20214;-78
2022/12/07 08:40:55;;;;;;;15.37;8.47;;;3.50;99.90;;;;;;5056423;28;20186;-78
2022/12/07 08:43:21;;;;;;;12.80;7.97;;;3.50;99.90;;;;;;5055427;28;20650;-77
2022/12/07 08:46:08;;;;;;;13.20;8.27;;;3.50;99.90;;;;;;5055274;28;20178;-77
2022/12/07 08:48:35;;;;;;;15.20;8.57;;;3.60;99.90;;;;;;5073885;28;20198;-77
2022/12/07 08:51:02;;;;;;;13.97;7.77;;;3.60;99.90;;;;;;5073600;28;20232;-77
2022/12/07 08:53:28;;;;;;;12.27;8.20;;;3.60;99.90;;;;;;5055550;28;20179;-77
2022/12/07 08:55:54;;;;;;;10.57;7.73;;;3.70;99.90;;;;;;5055520;28;20179;-77
2022/12/07 08:58:20;;;;;;;12.77;7.37;;;3.70;99.90;;;;;;5073479;28;20190;-76
2022/12/07 09:00:45;;;;;;;15.27;8.13;;;3.80;99.90;;;;;;5055283;28;20617;-77
2022/12/07 09:03:11;;;;;;;14.07;8.70;;;3.80;99.90;;;;;;5073677;28;20178;-78
2022/12/07 09:05:36;;;;;;;14.43;8.50;;;3.90;99.90;;;;;;5074414;28;20185;-78
2022/12/07 09:08:02;;;;;;;12.50;8.37;;;4.00;99.90;;;;;;5074118;28;20681;-77
2022/12/07 09:10:29;;;;;;;12.13;8.47;;;4.10;99.90;;;;;;5055573;28;20179;-78
2022/12/07 09:12:54;;;;;;;14.50;8.63;;;4.10;99.90;;;;;;5056167;28;20183;-78
2022/12/07 09:15:20;;;;;;;21.77;9.53;;;4.20;99.90;;;;;;5075110;28;20206;-77
2022/12/07 09:17:46;;;;;;;14.17;9.03;;;4.20;99.90;;;;;;5073162;28;20538;-76
2022/12/07 09:20:12;;;;;;;13.67;8.90;;;4.20;99.90;;;;;;5073132;28;20175;-76
2022/12/07 09:22:37;;;;;;;18.70;8.47;;;4.20;99.90;;;;;;5054787;28;20171;-76
2022/12/07 09:25:04;;;;;;;20.30;10.37;;;4.30;99.90;;;;;;5073104;28;20584;-76
2022/12/07 09:27:30;;;;;;;16.63;10.13;;;4.40;99.90;;;;;;5072700;28;20190;-76
2022/12/07 09:29:55;;;;;;;17.83;9.43;;;4.50;99.90;;;;;;5074175;28;20266;-77
2022/12/07 09:32:21;;;;;;;16.87;10.13;;;4.60;99.90;;;;;;5056025;28;20178;-76
2022/12/07 09:34:47;;;;;;;19.03;9.70;;;4.70;99.90;;;;;;5072746;28;20277;-77
2022/12/07 09:37:12;;;;;;;19.07;9.77;;;4.70;99.90;;;;;;5075364;28;20205;-77
2022/12/07 09:39:39;;;;;;;24.30;9.57;;;4.80;99.90;;;;;;5076863;28;20213;-76
2022/12/07 09:42:05;;;;;;;19.67;10.43;;;4.80;99.90;;;;;;5077550;28;20642;-77
2022/12/07 09:44:32;;;;;;;17.10;8.87;;;4.80;99.90;;;;;;5079844;28;20183;-79
2022/12/07 09:46:59;;;;;;;16.13;9.03;;;4.90;99.90;;;;;;5078502;28;20197;-77
2022/12/07 09:49:28;;;;;;;14.93;8.40;;;4.90;99.90;;;;;;5078331;28;20638;-78
2022/12/07 09:52:03;;;;;;;16.20;8.53;;;4.90;99.90;;;;;;5078587;28;20190;-78
2022/12/07 09:54:30;;;;;;;13.73;7.80;;;5.00;99.90;;;;;;5077082;28;20665;-77
2022/12/07 09:56:56;;;;;;;16.00;8.80;;;4.90;99.90;;;;;;5059596;28;20186;-78
2022/12/07 09:59:22;;;;;;;15.30;7.63;;;4.90;99.90;;;;;;5078866;28;20171;-78
2022/12/07 10:01:49;;;;;;;11.43;6.87;;;4.90;99.90;;;;;;5079121;28;20228;-78
2022/12/07 10:04:18;;;;;;;11.77;6.83;;;4.90;99.90;;;;;;5078911;28;20175;-79
2022/12/07 10:06:45;;;;;;;14.00;7.70;;;4.90;99.90;;;;;;5080083;28;20191;-79
2022/12/07 10:09:21;;;;;;;9.43;6.43;;;4.90;99.90;;;;;;5077892;28;20171;-78
2022/12/07 10:12:02;;;;;;;13.27;6.33;;;5.00;99.90;;;;;;5078702;28;20159;-78
2022/12/07 10:14:30;;;;;;;10.33;6.17;;;5.00;99.90;;;;;;5060308;28;20756;-78
2022/12/07 10:16:55;;;;;;;12.17;5.97;;;5.00;99.90;;;;;;5060902;28;20191;-79
2022/12/07 10:19:31;;;;;;;10.70;5.87;;;5.00;99.90;;;;;;5059824;28;20174;-78
2022/12/07 10:22:08;;;;;;;9.30;5.93;;;5.00;99.90;;;;;;5058572;28;20575;-77
2022/12/07 10:24:34;;;;;;;15.03;5.83;;;5.00;99.90;;;;;;5058303;28;20178;-77
2022/12/07 10:27:00;;;;;;;11.70;4.87;;;5.00;99.90;;;;;;5058466;28;20203;-77
2022/12/07 10:29:32;;;;;;;13.70;5.23;;;5.00;99.90;;;;;;5076084;28;20257;-77
2022/12/07 10:32:31;;;;;;;11.13;4.80;;;5.00;99.90;;;;;;5076371;28;20186;-77
2022/12/07 10:35:21;;;;;;;6.43;4.73;;;5.00;99.90;;;;;;5075800;28;20658;-77
2022/12/07 10:37:48;;;;;;;9.97;5.50;;;5.10;99.90;;;;;;5075903;28;20210;-77
2022/12/07 10:40:27;;;;;;;10.83;5.37;;;5.10;99.90;;;;;;5057906;28;20550;-77
2022/12/07 10:43:12;;;;;;;9.67;5.80;;;5.20;99.90;;;;;;5076066;28;20210;-77
2022/12/07 10:45:50;;;;;;;11.27;7.70;;;5.30;99.90;;;;;;5076160;28;20175;-77
2022/12/07 10:48:24;;;;;;;15.63;8.90;;;5.40;99.90;;;;;;5075282;28;20194;-77
2022/12/07 10:51:19;;;;;;;18.10;9.17;;;5.50;99.90;;;;;;5058016;28;20737;-78
2022/12/07 10:54:20;;;;;;;16.73;8.70;;;5.50;99.90;;;;;;5075589;28;20205;-77
2022/12/07 10:57:11;;;;;;;15.43;9.00;;;5.60;99.90;;;;;;5076043;28;20202;-77
2022/12/07 11:00:08;;;;;;;18.47;9.37;;;5.70;99.90;;;;;;5057742;28;20163;-77
2022/12/07 11:02:53;;;;;;;17.87;8.57;;;5.80;99.90;;;;;;5074672;28;20191;-77
2022/12/07 11:05:32;;;;;;;10.73;7.77;;;5.80;99.90;;;;;;5075227;28;20170;-76
2022/12/07 11:08:07;;;;;;;11.90;7.37;;;5.90;99.90;;;;;;5057215;28;20199;-76
2022/12/07 11:10:46;;;;;;;16.83;6.97;;;6.00;99.90;;;;;;5057339;28;20165;-77
2022/12/07 11:13:26;;;;;;;8.70;5.40;;;6.10;99.90;;;;;;5075243;28;20163;-77
2022/12/07 11:16:17;;;;;;;9.13;4.97;;;6.10;99.90;;;;;;5075133;28;20244;-77
2022/12/07 11:18:54;;;;;;;7.77;4.37;;;6.20;99.90;;;;;;5075100;28;20163;-78
2022/12/07 11:21:35;;;;;;;9.73;4.93;;;6.20;99.90;;;;;;5057207;28;20159;-77
2022/12/07 11:24:09;;;;;;;9.13;3.73;;;6.20;99.90;;;;;;5077803;28;20202;-77
2022/12/07 11:27:13;;;;;;;10.20;3.50;;;6.20;99.90;;;;;;5076650;28;20220;-77
2022/12/07 11:30:00;;;;;;;8.03;3.50;;;6.20;99.90;;;;;;5075499;28;20166;-77
2022/12/07 11:32:37;;;;;;;7.13;2.90;;;6.20;99.90;;;;;;5074820;28;20645;-77
2022/12/07 11:35:22;;;;;;;8.07;3.13;;;6.20;99.90;;;;;;5056791;28;20191;-77
2022/12/07 11:37:52;;;;;;;6.93;2.90;;;6.30;99.90;;;;;;5056835;28;20221;-77
2022/12/07 11:40:17;;;;;;;8.20;3.10;;;6.30;99.90;;;;;;5056957;28;20179;-77
2022/12/07 11:43:04;;;;;;;11.37;2.67;;;6.30;99.90;;;;;;5074657;28;20202;-77
2022/12/07 11:45:32;;;;;;;6.93;2.83;;;6.30;99.90;;;;;;5074671;28;20167;-77
2022/12/07 11:48:10;;;;;;;5.30;2.57;;;6.40;99.90;;;;;;5074354;28;20670;-77
2022/12/07 11:50:42;;;;;;;6.97;2.97;;;6.40;99.90;;;;;;5074359;28;20178;-77
2022/12/07 11:53:07;;;;;;;8.37;4.70;;;6.40;99.90;;;;;;5074547;28;20510;-75
2022/12/07 11:55:42;;;;;;;14.53;4.13;;;6.40;99.90;;;;;;5056400;28;20293;-77
2022/12/07 11:58:33;;;;;;;8.13;3.30;;;6.50;99.90;;;;;;5074368;28;20209;-77
2022/12/07 12:01:33;;;;;;;9.40;3.33;;;6.40;99.90;;;;;;5056366;28;20168;-77
2022/12/07 12:04:15;;;;;;;9.40;3.30;;;6.50;99.90;;;;;;5069208;28;20198;-77
2022/12/07 12:06:43;;;;;;;4.97;2.83;;;6.50;99.90;;;;;;5074345;28;20202;-77
2022/12/07 12:09:17;;;;;;;8.63;3.17;;;6.40;99.90;;;;;;5074184;28;20653;-77
2022/12/07 12:12:05;;;;;;;6.40;2.60;;;6.50;99.90;;;;;;5056800;28;20577;-77
2022/12/07 12:14:54;;;;;;;7.63;3.77;;;6.50;99.90;;;;;;5074434;28;20557;-77
2022/12/07 12:17:41;;;;;;;9.17;4.20;;;6.50;99.90;;;;;;5074111;28;20191;-77
2022/12/07 12:20:35;;;;;;;9.83;4.10;;;6.50;99.90;;;;;;5056061;28;20171;-77
2022/12/07 12:23:43;;;;;;;7.37;3.97;;;6.50;99.90;;;;;;5073938;28;20191;-77
2022/12/07 12:26:17;;;;;;;13.80;4.67;;;6.50;99.90;;;;;;5065328;28;20274;-77
2022/12/07 12:28:56;;;;;;;8.97;4.30;;;6.50;99.90;;;;;;5055979;28;20196;-77
2022/12/07 12:31:22;;;;;;;8.07;4.13;;;6.60;99.90;;;;;;5055643;28;20173;-77
2022/12/07 12:33:49;;;;;;;6.20;3.73;;;6.60;99.90;;;;;;5074043;28;20250;-78
2022/12/07 12:36:17;;;;;;;8.33;3.30;;;6.60;99.90;;;;;;5055655;28;20186;-78
2022/12/07 12:38:50;;;;;;;9.00;2.90;;;6.60;99.90;;;;;;5075863;28;20174;-78
2022/12/07 12:41:38;;;;;;;7.17;2.37;;;6.60;99.90;;;;;;5074859;28;20230;-78
2022/12/07 12:44:17;;;;;;;7.80;2.43;;;6.50;99.90;;;;;;5057283;28;20178;-78
2022/12/07 12:46:49;;;;;;;5.50;2.10;;;6.50;99.90;;;;;;5074863;28;20186;-78
2022/12/07 12:49:19;;;;;;;3.67;1.43;;;6.50;99.90;;;;;;5059645;28;20182;-78
2022/12/07 12:52:12;;;;;;;7.03;1.60;;;6.30;99.90;;;;;;5076007;28;20194;-79
2022/12/07 12:54:37;;;;;;;4.87;0.90;;;6.20;99.90;;;;;;5052901;28;20222;-80
2022/12/07 12:57:18;;;;;;;7.47;1.20;;;5.90;99.90;;;;;;5078078;28;20185;-80
2022/12/07 12:59:53;;;;;;;5.13;1.03;;;5.80;99.90;;;;;;5081005;28;20526;-79
2022/12/07 13:02:24;;;;;;;3.73;1.20;;;5.80;99.90;;;;;;5057565;28;20545;-78